sensor_id;sensor_type;location;lat;lon;timestamp;pressure;altitude;pressure_sealevel;temperature;humidity
42125;BME280;27787;44.594;11.046;2024-03-08T00:00:17;101030.47;;;8.31;95.46
42125;BME280;27787;44.594;11.046;2024-03-08T00:03:04;101036.75;;;8.34;95.50
42125;BME280;27787;44.594;11.046;2024-03-08T00:05:49;101033.25;;;8.35;95.70
42125;BME280;27787;44.594;11.046;2024-03-08T00:08:34;101036.91;;;8.43;95.68
42125;BME280;27787;44.594;11.046;2024-03-08T00:11:18;101039.50;;;8.42;95.55
42125;BME280;27787;44.594;11.046;2024-03-08T00:14:03;101035.91;;;8.37;95.68
42125;BME280;27787;44.594;11.046;2024-03-08T00:16:50;101044.50;;;8.31;96.18
42125;BME280;27787;44.594;11.046;2024-03-08T00:19:36;101045.31;;;8.27;96.20
42125;BME280;27787;44.594;11.046;2024-03-08T00:22:21;101046.97;;;8.22;96.29
42125;BME280;27787;44.594;11.046;2024-03-08T00:25:06;101042.34;;;8.12;96.00
42125;BME280;27787;44.594;11.046;2024-03-08T00:27:54;101040.38;;;8.02;96.23
42125;BME280;27787;44.594;11.046;2024-03-08T00:30:41;101042.75;;;7.91;96.31
42125;BME280;27787;44.594;11.046;2024-03-08T00:33:26;101044.44;;;7.87;96.37
42125;BME280;27787;44.594;11.046;2024-03-08T00:36:11;101035.84;;;7.94;96.45
42125;BME280;27787;44.594;11.046;2024-03-08T00:38:55;101035.13;;;8.02;94.61
42125;BME280;27787;44.594;11.046;2024-03-08T00:41:39;101028.16;;;8.04;93.47
42125;BME280;27787;44.594;11.046;2024-03-08T00:44:23;101028.19;;;8.07;92.95
42125;BME280;27787;44.594;11.046;2024-03-08T00:47:08;101027.50;;;8.14;92.65
42125;BME280;27787;44.594;11.046;2024-03-08T00:49:52;101024.19;;;8.22;92.20
42125;BME280;27787;44.594;11.046;2024-03-08T00:52:37;101025.38;;;8.37;91.75
42125;BME280;27787;44.594;11.046;2024-03-08T00:55:21;101035.31;;;8.50;90.84
42125;BME280;27787;44.594;11.046;2024-03-08T00:58:05;101036.22;;;8.52;90.43
42125;BME280;27787;44.594;11.046;2024-03-08T01:00:50;101035.72;;;8.31;90.72
42125;BME280;27787;44.594;11.046;2024-03-08T01:03:35;101045.56;;;7.98;92.49
42125;BME280;27787;44.594;11.046;2024-03-08T01:06:19;101042.97;;;7.62;95.54
42125;BME280;27787;44.594;11.046;2024-03-08T01:09:03;101040.78;;;7.43;97.64
42125;BME280;27787;44.594;11.046;2024-03-08T01:11:50;101038.84;;;7.36;99.25
42125;BME280;27787;44.594;11.046;2024-03-08T01:14:35;101029.09;;;7.30;100.00
42125;BME280;27787;44.594;11.046;2024-03-08T01:17:19;101034.91;;;7.19;100.00
42125;BME280;27787;44.594;11.046;2024-03-08T01:20:04;101035.63;;;7.13;100.00
42125;BME280;27787;44.594;11.046;2024-03-08T01:22:48;101032.47;;;7.26;100.00
42125;BME280;27787;44.594;11.046;2024-03-08T01:25:33;101028.34;;;7.36;100.00
42125;BME280;27787;44.594;11.046;2024-03-08T01:28:18;101032.72;;;7.37;100.00
42125;BME280;27787;44.594;11.046;2024-03-08T01:31:01;101024.13;;;7.43;100.00
42125;BME280;27787;44.594;11.046;2024-03-08T01:33:47;101027.78;;;7.49;100.00
42125;BME280;27787;44.594;11.046;2024-03-08T01:36:32;101023.22;;;7.42;100.00
42125;BME280;27787;44.594;11.046;2024-03-08T01:39:16;101030.88;;;7.33;100.00
42125;BME280;27787;44.594;11.046;2024-03-08T01:42:01;101025.66;;;7.34;100.00
42125;BME280;27787;44.594;11.046;2024-03-08T01:44:45;101025.75;;;7.37;100.00
42125;BME280;27787;44.594;11.046;2024-03-08T01:47:28;101030.28;;;7.43;100.00
42125;BME280;27787;44.594;11.046;2024-03-08T01:50:13;101025.84;;;7.42;100.00
42125;BME280;27787;44.594;11.046;2024-03-08T01:52:58;101022.31;;;7.42;100.00
42125;BME280;27787;44.594;11.046;2024-03-08T01:55:48;101015.25;;;7.39;100.00
42125;BME280;27787;44.594;11.046;2024-03-08T01:58:33;101019.53;;;7.34;100.00
42125;BME280;27787;44.594;11.046;2024-03-08T02:01:17;101014.22;;;7.31;100.00
42125;BME280;27787;44.594;11.046;2024-03-08T02:04:03;101012.53;;;7.34;100.00
42125;BME280;27787;44.594;11.046;2024-03-08T02:06:47;101012.63;;;7.39;100.00
42125;BME280;27787;44.594;11.046;2024-03-08T02:09:32;101013.09;;;7.21;100.00
42125;BME280;27787;44.594;11.046;2024-03-08T02:12:16;101010.75;;;6.99;100.00
42125;BME280;27787;44.594;11.046;2024-03-08T02:15:00;101006.97;;;6.88;100.00
42125;BME280;27787;44.594;11.046;2024-03-08T02:17:45;101002.25;;;6.74;100.00
42125;BME280;27787;44.594;11.046;2024-03-08T02:20:29;101002.94;;;6.67;100.00
42125;BME280;27787;44.594;11.046;2024-03-08T02:23:14;101005.69;;;6.72;100.00
42125;BME280;27787;44.594;11.046;2024-03-08T02:25:58;100996.25;;;6.78;100.00
42125;BME280;27787;44.594;11.046;2024-03-08T02:28:44;100998.25;;;6.89;100.00
42125;BME280;27787;44.594;11.046;2024-03-08T02:31:28;101005.50;;;6.99;100.00
42125;BME280;27787;44.594;11.046;2024-03-08T02:34:12;101003.91;;;7.04;100.00
42125;BME280;27787;44.594;11.046;2024-03-08T02:36:57;101012.56;;;7.01;100.00
42125;BME280;27787;44.594;11.046;2024-03-08T02:39:41;100998.41;;;6.95;100.00
42125;BME280;27787;44.594;11.046;2024-03-08T02:42:25;101006.25;;;6.93;100.00
42125;BME280;27787;44.594;11.046;2024-03-08T02:45:09;101009.78;;;6.94;100.00
42125;BME280;27787;44.594;11.046;2024-03-08T02:47:57;101009.69;;;6.91;100.00
42125;BME280;27787;44.594;11.046;2024-03-08T02:50:41;101015.50;;;6.79;100.00
42125;BME280;27787;44.594;11.046;2024-03-08T02:53:28;101004.06;;;6.77;100.00
42125;BME280;27787;44.594;11.046;2024-03-08T02:56:12;101005.78;;;6.76;100.00
42125;BME280;27787;44.594;11.046;2024-03-08T02:59:00;100999.59;;;6.73;100.00
42125;BME280;27787;44.594;11.046;2024-03-08T03:01:44;101004.00;;;6.75;100.00
42125;BME280;27787;44.594;11.046;2024-03-08T03:04:28;101006.13;;;6.89;100.00
42125;BME280;27787;44.594;11.046;2024-03-08T03:07:12;101002.81;;;6.96;100.00
42125;BME280;27787;44.594;11.046;2024-03-08T03:09:56;101004.38;;;6.89;100.00
42125;BME280;27787;44.594;11.046;2024-03-08T03:12:40;101014.69;;;6.82;100.00
42125;BME280;27787;44.594;11.046;2024-03-08T03:15:25;101014.66;;;6.80;100.00
42125;BME280;27787;44.594;11.046;2024-03-08T03:18:10;101023.59;;;6.88;100.00
42125;BME280;27787;44.594;11.046;2024-03-08T03:20:55;101032.44;;;6.90;100.00
42125;BME280;27787;44.594;11.046;2024-03-08T03:23:40;101033.22;;;6.88;100.00
42125;BME280;27787;44.594;11.046;2024-03-08T03:26:24;101034.97;;;6.89;100.00
42125;BME280;27787;44.594;11.046;2024-03-08T03:29:08;101032.34;;;6.89;100.00
42125;BME280;27787;44.594;11.046;2024-03-08T03:31:52;101028.06;;;6.91;100.00
42125;BME280;27787;44.594;11.046;2024-03-08T03:34:36;101035.22;;;6.98;100.00
42125;BME280;27787;44.594;11.046;2024-03-08T03:37:20;101035.13;;;6.93;100.00
42125;BME280;27787;44.594;11.046;2024-03-08T03:40:04;101038.50;;;6.89;100.00
42125;BME280;27787;44.594;11.046;2024-03-08T03:42:49;101027.81;;;6.82;100.00
42125;BME280;27787;44.594;11.046;2024-03-08T03:45:33;101025.78;;;6.71;100.00
42125;BME280;27787;44.594;11.046;2024-03-08T03:48:20;101030.25;;;6.75;100.00
42125;BME280;27787;44.594;11.046;2024-03-08T03:51:04;101039.19;;;6.82;100.00
42125;BME280;27787;44.594;11.046;2024-03-08T03:53:48;101033.31;;;6.91;100.00
42125;BME280;27787;44.594;11.046;2024-03-08T03:56:32;101039.50;;;6.93;100.00
42125;BME280;27787;44.594;11.046;2024-03-08T03:59:16;101038.34;;;6.83;100.00
42125;BME280;27787;44.594;11.046;2024-03-08T04:02:01;101030.34;;;6.78;100.00
42125;BME280;27787;44.594;11.046;2024-03-08T04:04:47;101036.47;;;6.77;100.00
42125;BME280;27787;44.594;11.046;2024-03-08T04:07:31;101040.84;;;6.78;100.00
42125;BME280;27787;44.594;11.046;2024-03-08T04:10:15;101033.84;;;6.77;100.00
42125;BME280;27787;44.594;11.046;2024-03-08T04:13:00;101031.88;;;6.70;100.00
42125;BME280;27787;44.594;11.046;2024-03-08T04:15:44;101021.16;;;6.63;100.00
42125;BME280;27787;44.594;11.046;2024-03-08T04:18:28;101025.53;;;6.62;100.00
42125;BME280;27787;44.594;11.046;2024-03-08T04:21:12;101026.22;;;6.55;100.00
42125;BME280;27787;44.594;11.046;2024-03-08T04:23:56;101026.91;;;6.49;100.00
42125;BME280;27787;44.594;11.046;2024-03-08T04:26:40;101026.00;;;6.47;100.00
42125;BME280;27787;44.594;11.046;2024-03-08T04:29:25;101030.38;;;6.48;100.00
42125;BME280;27787;44.594;11.046;2024-03-08T04:32:10;101029.47;;;6.46;100.00
42125;BME280;27787;44.594;11.046;2024-03-08T04:34:54;101027.56;;;6.41;100.00
42125;BME280;27787;44.594;11.046;2024-03-08T04:37:38;101035.25;;;6.35;100.00
42125;BME280;27787;44.594;11.046;2024-03-08T04:40:22;101031.53;;;6.27;100.00
42125;BME280;27787;44.594;11.046;2024-03-08T04:43:07;101037.41;;;6.19;100.00
42125;BME280;27787;44.594;11.046;2024-03-08T04:45:52;101050.16;;;6.07;100.00
42125;BME280;27787;44.594;11.046;2024-03-08T04:48:37;101047.16;;;5.95;100.00
42125;BME280;27787;44.594;11.046;2024-03-08T04:51:21;101042.97;;;6.00;100.00
42125;BME280;27787;44.594;11.046;2024-03-08T04:54:05;101051.34;;;6.17;100.00
42125;BME280;27787;44.594;11.046;2024-03-08T04:56:49;101043.03;;;6.32;100.00
42125;BME280;27787;44.594;11.046;2024-03-08T04:59:33;101044.31;;;6.46;100.00
42125;BME280;27787;44.594;11.046;2024-03-08T05:02:17;101042.88;;;6.57;100.00
42125;BME280;27787;44.594;11.046;2024-03-08T05:05:02;101040.47;;;6.65;100.00
42125;BME280;27787;44.594;11.046;2024-03-08T05:07:46;101036.31;;;6.73;100.00
42125;BME280;27787;44.594;11.046;2024-03-08T05:10:31;101035.66;;;6.80;100.00
42125;BME280;27787;44.594;11.046;2024-03-08T05:13:15;101038.34;;;6.83;100.00
42125;BME280;27787;44.594;11.046;2024-03-08T05:16:00;101038.34;;;6.83;100.00
42125;BME280;27787;44.594;11.046;2024-03-08T05:18:44;101038.22;;;6.78;100.00
42125;BME280;27787;44.594;11.046;2024-03-08T05:21:30;101038.91;;;6.71;100.00
42125;BME280;27787;44.594;11.046;2024-03-08T05:24:15;101038.63;;;6.62;100.00
42125;BME280;27787;44.594;11.046;2024-03-08T05:27:00;101038.25;;;6.48;100.00
42125;BME280;27787;44.594;11.046;2024-03-08T05:29:44;101041.41;;;6.37;100.00
42125;BME280;27787;44.594;11.046;2024-03-08T05:32:30;101045.47;;;6.26;100.00
42125;BME280;27787;44.594;11.046;2024-03-08T05:35:14;101050.81;;;6.29;100.00
42125;BME280;27787;44.594;11.046;2024-03-08T05:38:00;101050.31;;;6.42;100.00
42125;BME280;27787;44.594;11.046;2024-03-08T05:40:45;101048.94;;;6.55;100.00
42125;BME280;27787;44.594;11.046;2024-03-08T05:43:30;101055.34;;;6.64;100.00
42125;BME280;27787;44.594;11.046;2024-03-08T05:46:15;101052.88;;;6.70;100.00
42125;BME280;27787;44.594;11.046;2024-03-08T05:49:00;101052.00;;;6.71;100.00
42125;BME280;27787;44.594;11.046;2024-03-08T05:51:44;101059.00;;;6.71;100.00
42125;BME280;27787;44.594;11.046;2024-03-08T05:54:30;101057.34;;;6.74;100.00
42125;BME280;27787;44.594;11.046;2024-03-08T05:57:14;101055.75;;;6.79;100.00
42125;BME280;27787;44.594;11.046;2024-03-08T05:59:58;101061.84;;;6.78;100.00
42125;BME280;27787;44.594;11.046;2024-03-08T06:02:42;101065.22;;;6.74;100.00
42125;BME280;27787;44.594;11.046;2024-03-08T06:05:26;101061.66;;;6.72;100.00
42125;BME280;27787;44.594;11.046;2024-03-08T06:08:10;101071.06;;;6.64;99.17
42125;BME280;27787;44.594;11.046;2024-03-08T06:10:56;101078.78;;;6.60;99.46
42125;BME280;27787;44.594;11.046;2024-03-08T06:13:40;101082.19;;;6.56;99.37
42125;BME280;27787;44.594;11.046;2024-03-08T06:16:25;101077.63;;;6.50;99.44
42125;BME280;27787;44.594;11.046;2024-03-08T06:19:13;101082.94;;;6.52;99.56
42125;BME280;27787;44.594;11.046;2024-03-08T06:21:58;101089.00;;;6.50;99.29
42125;BME280;27787;44.594;11.046;2024-03-08T06:24:44;101084.69;;;6.51;99.26
42125;BME280;27787;44.594;11.046;2024-03-08T06:27:28;101093.34;;;6.50;99.72
42125;BME280;27787;44.594;11.046;2024-03-08T06:30:13;101092.47;;;6.49;100.00
42125;BME280;27787;44.594;11.046;2024-03-08T06:32:57;101099.59;;;6.54;100.00
42125;BME280;27787;44.594;11.046;2024-03-08T06:35:41;101106.72;;;6.58;99.86
42125;BME280;27787;44.594;11.046;2024-03-08T06:38:27;101101.69;;;6.65;100.00
42125;BME280;27787;44.594;11.046;2024-03-08T06:41:11;101103.47;;;6.66;98.93
42125;BME280;27787;44.594;11.046;2024-03-08T06:44:02;101115.84;;;6.72;99.56
42125;BME280;27787;44.594;11.046;2024-03-08T06:46:47;101106.47;;;6.80;99.70
42125;BME280;27787;44.594;11.046;2024-03-08T06:49:32;101106.94;;;6.97;100.00
42125;BME280;27787;44.594;11.046;2024-03-08T06:52:17;101107.31;;;7.10;100.00
42125;BME280;27787;44.594;11.046;2024-03-08T06:55:02;101118.09;;;7.21;100.00
42125;BME280;27787;44.594;11.046;2024-03-08T06:57:46;101114.03;;;7.32;100.00
42125;BME280;27787;44.594;11.046;2024-03-08T07:00:31;101118.75;;;7.46;100.00
42125;BME280;27787;44.594;11.046;2024-03-08T07:03:15;101110.19;;;7.54;100.00
42125;BME280;27787;44.594;11.046;2024-03-08T07:06:01;101112.03;;;7.57;100.00
42125;BME280;27787;44.594;11.046;2024-03-08T07:08:46;101108.44;;;7.55;100.00
42125;BME280;27787;44.594;11.046;2024-03-08T07:11:31;101096.25;;;7.55;100.00
42125;BME280;27787;44.594;11.046;2024-03-08T07:14:15;101090.28;;;7.62;100.00
42125;BME280;27787;44.594;11.046;2024-03-08T07:17:00;101085.88;;;7.61;100.00
42125;BME280;27787;44.594;11.046;2024-03-08T07:19:45;101092.97;;;7.65;100.00
42125;BME280;27787;44.594;11.046;2024-03-08T07:22:29;101086.34;;;7.81;100.00
42125;BME280;27787;44.594;11.046;2024-03-08T07:25:13;101097.22;;;7.96;100.00
42125;BME280;27787;44.594;11.046;2024-03-08T07:28:04;101087.75;;;8.05;100.00
42125;BME280;27787;44.594;11.046;2024-03-08T07:30:50;101084.28;;;8.06;100.00
42125;BME280;27787;44.594;11.046;2024-03-08T07:33:52;101087.09;;;8.13;100.00
42125;BME280;27787;44.594;11.046;2024-03-08T07:36:37;101080.13;;;8.15;100.00
42125;BME280;27787;44.594;11.046;2024-03-08T07:39:22;101083.78;;;8.22;100.00
42125;BME280;27787;44.594;11.046;2024-03-08T07:42:07;101081.19;;;8.23;100.00
42125;BME280;27787;44.594;11.046;2024-03-08T07:44:52;101081.22;;;8.25;100.00
42125;BME280;27787;44.594;11.046;2024-03-08T07:47:36;101081.19;;;8.23;100.00
42125;BME280;27787;44.594;11.046;2024-03-08T07:50:20;101090.88;;;8.26;100.00
42125;BME280;27787;44.594;11.046;2024-03-08T07:53:06;101086.53;;;8.28;100.00
42125;BME280;27787;44.594;11.046;2024-03-08T07:55:51;101095.53;;;8.36;100.00
42125;BME280;27787;44.594;11.046;2024-03-08T07:58:37;101094.44;;;8.29;100.00
42125;BME280;27787;44.594;11.046;2024-03-08T08:01:21;101096.31;;;8.34;100.00
42125;BME280;27787;44.594;11.046;2024-03-08T08:04:05;101096.25;;;8.32;100.00
42125;BME280;27787;44.594;11.046;2024-03-08T08:06:49;101098.81;;;8.29;100.00
42125;BME280;27787;44.594;11.046;2024-03-08T08:09:34;101101.47;;;8.29;100.00
42125;BME280;27787;44.594;11.046;2024-03-08T08:12:18;101103.19;;;8.28;100.00
42125;BME280;27787;44.594;11.046;2024-03-08T08:15:02;101103.44;;;8.38;100.00
42125;BME280;27787;44.594;11.046;2024-03-08T08:17:47;101101.81;;;8.44;100.00
42125;BME280;27787;44.594;11.046;2024-03-08T08:20:34;101096.69;;;8.49;100.00
42125;BME280;27787;44.594;11.046;2024-03-08T08:23:18;101104.56;;;8.49;100.00
42125;BME280;27787;44.594;11.046;2024-03-08T08:26:03;101099.22;;;8.46;100.00
42125;BME280;27787;44.594;11.046;2024-03-08T08:28:48;101102.03;;;8.53;100.00
42125;BME280;27787;44.594;11.046;2024-03-08T08:31:34;101095.03;;;8.55;100.00
42125;BME280;27787;44.594;11.046;2024-03-08T08:34:18;101092.53;;;8.60;100.00
42125;BME280;27787;44.594;11.046;2024-03-08T08:37:05;101087.28;;;8.62;100.00
42125;BME280;27787;44.594;11.046;2024-03-08T08:39:50;101088.19;;;8.64;100.00
42125;BME280;27787;44.594;11.046;2024-03-08T08:42:38;101090.88;;;8.65;100.00
42125;BME280;27787;44.594;11.046;2024-03-08T08:45:23;101099.69;;;8.69;100.00
42125;BME280;27787;44.594;11.046;2024-03-08T08:48:07;101096.31;;;8.74;100.00
42125;BME280;27787;44.594;11.046;2024-03-08T08:50:51;101092.97;;;8.83;100.00
42125;BME280;27787;44.594;11.046;2024-03-08T08:53:36;101094.06;;;8.94;100.00
42125;BME280;27787;44.594;11.046;2024-03-08T08:56:20;101103.72;;;8.95;100.00
42125;BME280;27787;44.594;11.046;2024-03-08T08:59:08;101102.16;;;9.03;100.00
42125;BME280;27787;44.594;11.046;2024-03-08T09:01:53;101102.34;;;9.14;100.00
42125;BME280;27787;44.594;11.046;2024-03-08T09:04:37;101097.22;;;9.22;100.00
42125;BME280;27787;44.594;11.046;2024-03-08T09:07:21;101100.81;;;9.25;100.00
42125;BME280;27787;44.594;11.046;2024-03-08T09:10:06;101099.09;;;9.29;100.00
42125;BME280;27787;44.594;11.046;2024-03-08T09:12:51;101094.00;;;9.38;100.00
42125;BME280;27787;44.594;11.046;2024-03-08T09:15:34;101095.00;;;9.46;100.00
42125;BME280;27787;44.594;11.046;2024-03-08T09:18:20;101090.78;;;9.56;100.00
42125;BME280;27787;44.594;11.046;2024-03-08T09:21:04;101100.53;;;9.61;100.00
42125;BME280;27787;44.594;11.046;2024-03-08T09:23:49;101091.84;;;9.65;100.00
42125;BME280;27787;44.594;11.046;2024-03-08T09:26:33;101100.69;;;9.70;100.00
42125;BME280;27787;44.594;11.046;2024-03-08T09:29:17;101090.28;;;9.78;100.00
42125;BME280;27787;44.594;11.046;2024-03-08T09:32:01;101088.66;;;9.88;100.00
42125;BME280;27787;44.594;11.046;2024-03-08T09:34:47;101092.13;;;9.84;100.00
42125;BME280;27787;44.594;11.046;2024-03-08T09:37:30;101102.44;;;9.68;100.00
42125;BME280;27787;44.594;11.046;2024-03-08T09:40:15;101104.84;;;9.55;100.00
42125;BME280;27787;44.594;11.046;2024-03-08T09:42:59;101097.69;;;9.49;100.00
42125;BME280;27787;44.594;11.046;2024-03-08T09:45:45;101104.81;;;9.53;100.00
42125;BME280;27787;44.594;11.046;2024-03-08T09:48:30;101100.66;;;9.67;100.00
42125;BME280;27787;44.594;11.046;2024-03-08T09:51:15;101092.06;;;9.81;100.00
42125;BME280;27787;44.594;11.046;2024-03-08T09:54:00;101099.28;;;9.92;100.00
42125;BME280;27787;44.594;11.046;2024-03-08T09:56:45;101095.13;;;10.07;100.00
42125;BME280;27787;44.594;11.046;2024-03-08T09:59:31;101098.88;;;10.22;100.00
42125;BME280;27787;44.594;11.046;2024-03-08T10:02:21;101104.28;;;10.30;100.00
42125;BME280;27787;44.594;11.046;2024-03-08T10:05:06;101105.19;;;10.32;100.00
42125;BME280;27787;44.594;11.046;2024-03-08T10:07:51;101099.13;;;10.41;100.00
42125;BME280;27787;44.594;11.046;2024-03-08T10:10:36;101099.25;;;10.50;100.00
42125;BME280;27787;44.594;11.046;2024-03-08T10:13:21;101098.50;;;10.60;100.00
42125;BME280;27787;44.594;11.046;2024-03-08T10:16:07;101102.19;;;10.71;100.00
42125;BME280;27787;44.594;11.046;2024-03-08T10:18:52;101095.22;;;10.79;100.00
42125;BME280;27787;44.594;11.046;2024-03-08T10:21:49;101088.31;;;10.90;100.00
42125;BME280;27787;44.594;11.046;2024-03-08T10:24:34;101088.38;;;10.97;100.00
42125;BME280;27787;44.594;11.046;2024-03-08T10:27:19;101084.94;;;11.05;100.00
42125;BME280;27787;44.594;11.046;2024-03-08T10:30:15;101088.53;;;11.10;100.00
42125;BME280;27787;44.594;11.046;2024-03-08T10:33:04;101084.16;;;11.14;100.00
42125;BME280;27787;44.594;11.046;2024-03-08T10:35:49;101071.81;;;11.13;100.00
42125;BME280;27787;44.594;11.046;2024-03-08T10:38:36;101074.47;;;11.16;100.00
42125;BME280;27787;44.594;11.046;2024-03-08T10:41:23;101070.97;;;11.18;100.00
42125;BME280;27787;44.594;11.046;2024-03-08T10:47:22;101069.41;;;11.34;100.00
42125;BME280;27787;44.594;11.046;2024-03-08T10:52:55;101064.34;;;11.62;99.80
42125;BME280;27787;44.594;11.046;2024-03-08T10:55:42;101060.09;;;11.79;98.90
42125;BME280;27787;44.594;11.046;2024-03-08T10:58:28;101053.13;;;11.95;98.37
42125;BME280;27787;44.594;11.046;2024-03-08T11:01:13;101058.56;;;12.12;99.95
42125;BME280;27787;44.594;11.046;2024-03-08T11:03:57;101048.81;;;12.07;100.00
42125;BME280;27787;44.594;11.046;2024-03-08T11:06:42;101061.88;;;11.83;100.00
42125;BME280;27787;44.594;11.046;2024-03-08T11:09:31;101046.72;;;11.65;100.00
42125;BME280;27787;44.594;11.046;2024-03-08T11:12:25;101039.66;;;11.61;100.00
42125;BME280;27787;44.594;11.046;2024-03-08T11:15:12;101036.97;;;11.57;100.00
42125;BME280;27787;44.594;11.046;2024-03-08T11:18:02;101030.78;;;11.55;100.00
42125;BME280;27787;44.594;11.046;2024-03-08T11:20:48;101031.72;;;11.61;100.00
42125;BME280;27787;44.594;11.046;2024-03-08T11:23:34;101018.53;;;11.66;100.00
42125;BME280;27787;44.594;11.046;2024-03-08T11:26:20;101025.66;;;11.77;100.00
42125;BME280;27787;44.594;11.046;2024-03-08T11:32:15;101017.88;;;11.97;100.00
42125;BME280;27787;44.594;11.046;2024-03-08T11:35:01;101020.56;;;12.05;100.00
42125;BME280;27787;44.594;11.046;2024-03-08T11:37:49;101018.00;;;12.20;100.00
42125;BME280;27787;44.594;11.046;2024-03-08T11:40:35;101019.81;;;12.27;100.00
42125;BME280;27787;44.594;11.046;2024-03-08T11:43:20;101002.22;;;12.37;100.00
42125;BME280;27787;44.594;11.046;2024-03-08T11:46:10;101006.66;;;12.50;100.00
42125;BME280;27787;44.594;11.046;2024-03-08T11:48:59;101000.50;;;12.57;100.00
42125;BME280;27787;44.594;11.046;2024-03-08T11:51:44;100996.09;;;12.56;100.00
42125;BME280;27787;44.594;11.046;2024-03-08T11:54:29;100985.50;;;12.56;100.00
42125;BME280;27787;44.594;11.046;2024-03-08T11:57:14;100981.06;;;12.57;100.00
42125;BME280;27787;44.594;11.046;2024-03-08T11:59:58;100978.44;;;12.60;100.00
42125;BME280;27787;44.594;11.046;2024-03-08T12:03:05;100970.50;;;12.69;100.00
42125;BME280;27787;44.594;11.046;2024-03-08T12:05:57;100969.63;;;12.73;100.00
42125;BME280;27787;44.594;11.046;2024-03-08T12:08:42;100977.59;;;12.76;100.00
42125;BME280;27787;44.594;11.046;2024-03-08T12:11:25;100978.47;;;12.74;99.49
42125;BME280;27787;44.594;11.046;2024-03-08T12:14:10;100976.69;;;12.71;99.54
42125;BME280;27787;44.594;11.046;2024-03-08T12:16:54;100968.75;;;12.66;99.39
42125;BME280;27787;44.594;11.046;2024-03-08T12:19:39;100964.31;;;12.62;99.90
42125;BME280;27787;44.594;11.046;2024-03-08T12:22:26;100961.66;;;12.62;100.00
42125;BME280;27787;44.594;11.046;2024-03-08T12:25:11;100961.69;;;12.65;100.00
42125;BME280;27787;44.594;11.046;2024-03-08T12:27:56;100961.69;;;12.65;100.00
42125;BME280;27787;44.594;11.046;2024-03-08T12:30:51;100955.50;;;12.66;100.00
42125;BME280;27787;44.594;11.046;2024-03-08T12:33:55;100948.44;;;12.64;100.00
42125;BME280;27787;44.594;11.046;2024-03-08T12:36:47;100955.50;;;12.63;100.00
42125;BME280;27787;44.594;11.046;2024-03-08T12:39:34;100949.28;;;12.61;100.00
42125;BME280;27787;44.594;11.046;2024-03-08T12:42:18;100943.16;;;12.64;100.00
42125;BME280;27787;44.594;11.046;2024-03-08T12:45:03;100929.91;;;12.68;100.00
42125;BME280;27787;44.594;11.046;2024-03-08T12:47:51;100929.91;;;12.72;100.00
42125;BME280;27787;44.594;11.046;2024-03-08T12:50:35;100933.44;;;12.75;100.00
42125;BME280;27787;44.594;11.046;2024-03-08T12:53:19;100916.66;;;12.68;100.00
42125;BME280;27787;44.594;11.046;2024-03-08T12:56:04;100921.06;;;12.66;100.00
42125;BME280;27787;44.594;11.046;2024-03-08T12:58:51;100915.78;;;12.71;100.00
42125;BME280;27787;44.594;11.046;2024-03-08T13:01:37;100922.84;;;12.77;99.72
42125;BME280;27787;44.594;11.046;2024-03-08T13:04:21;100917.53;;;12.74;99.04
42125;BME280;27787;44.594;11.046;2024-03-08T13:07:05;100908.69;;;12.75;99.11
42125;BME280;27787;44.594;11.046;2024-03-08T13:09:50;100925.47;;;12.74;99.38
42125;BME280;27787;44.594;11.046;2024-03-08T13:12:34;100916.66;;;12.72;100.00
42125;BME280;27787;44.594;11.046;2024-03-08T13:15:21;100912.25;;;12.72;99.94
42125;BME280;27787;44.594;11.046;2024-03-08T13:18:06;100920.19;;;12.67;99.01
42125;BME280;27787;44.594;11.046;2024-03-08T13:20:53;100902.50;;;12.60;99.89
42125;BME280;27787;44.594;11.046;2024-03-08T13:23:40;100907.81;;;12.56;99.49
42125;BME280;27787;44.594;11.046;2024-03-08T13:26:25;100912.22;;;12.54;99.58
42125;BME280;27787;44.594;11.046;2024-03-08T13:29:13;100899.88;;;12.54;100.00
42125;BME280;27787;44.594;11.046;2024-03-08T13:31:58;100901.63;;;12.55;100.00
42125;BME280;27787;44.594;11.046;2024-03-08T13:34:46;100899.88;;;12.60;100.00
42125;BME280;27787;44.594;11.046;2024-03-08T13:37:41;100895.47;;;12.65;99.14
42125;BME280;27787;44.594;11.046;2024-03-08T13:40:25;100890.19;;;12.65;99.02
42125;BME280;27787;44.594;11.046;2024-03-08T13:43:10;100889.28;;;12.73;99.04
42125;BME280;27787;44.594;11.046;2024-03-08T13:45:55;100883.97;;;12.73;97.81
42125;BME280;27787;44.594;11.046;2024-03-08T13:48:39;100868.97;;;12.72;97.37
42125;BME280;27787;44.594;11.046;2024-03-08T13:51:24;100874.28;;;12.73;97.29
42125;BME280;27787;44.594;11.046;2024-03-08T13:54:10;100868.97;;;12.72;96.40
42125;BME280;27787;44.594;11.046;2024-03-08T13:56:54;100867.22;;;12.70;95.96
42125;BME280;27787;44.594;11.046;2024-03-08T13:59:39;100868.09;;;12.66;96.41
42125;BME280;27787;44.594;11.046;2024-03-08T14:02:23;100861.94;;;12.66;96.90
42125;BME280;27787;44.594;11.046;2024-03-08T14:05:12;100855.75;;;12.65;97.00
42125;BME280;27787;44.594;11.046;2024-03-08T14:07:58;100857.50;;;12.68;96.82
42125;BME280;27787;44.594;11.046;2024-03-08T14:10:45;100869.88;;;12.66;95.54
42125;BME280;27787;44.594;11.046;2024-03-08T14:13:34;100860.16;;;12.63;96.50
42125;BME280;27787;44.594;11.046;2024-03-08T14:16:18;100857.50;;;12.63;98.98
42125;BME280;27787;44.594;11.046;2024-03-08T14:19:03;100865.47;;;12.66;100.00
42125;BME280;27787;44.594;11.046;2024-03-08T14:21:49;100861.03;;;12.65;99.97